createdAt,value
2023-01-08T00:00:45.230Z,962.54
2023-01-08T00:01:45.114Z,962.64
2023-01-08T00:02:45.172Z,962.59
2023-01-08T00:03:45.292Z,962.54
2023-01-08T00:04:45.045Z,962.61
2023-01-08T00:05:45.058Z,962.63
2023-01-08T00:06:45.039Z,962.62
2023-01-08T00:07:45.000Z,962.57
2023-01-08T00:08:45.008Z,962.59
2023-01-08T00:09:45.020Z,962.59
2023-01-08T00:10:44.971Z,962.61
2023-01-08T00:11:45.595Z,962.57
2023-01-08T00:12:45.009Z,962.59
2023-01-08T00:13:44.954Z,962.61
2023-01-08T00:14:44.936Z,962.52
2023-01-08T00:15:44.926Z,962.49
2023-01-08T00:16:45.009Z,962.57
2023-01-08T00:17:44.915Z,962.56
2023-01-08T00:18:44.893Z,962.55
2023-01-08T00:19:44.901Z,962.50
2023-01-08T00:20:44.867Z,962.49
2023-01-08T00:21:44.937Z,962.45
2023-01-08T00:22:44.841Z,962.50
2023-01-08T00:23:44.833Z,962.56
2023-01-08T00:24:44.895Z,962.55
2023-01-08T00:25:44.861Z,962.56
2023-01-08T00:26:44.851Z,962.61
2023-01-08T00:27:44.827Z,962.70
2023-01-08T00:28:44.775Z,962.68
2023-01-08T00:29:44.851Z,962.70
2023-01-08T00:30:45.734Z,962.62
2023-01-08T00:31:44.761Z,962.63
2023-01-08T00:32:44.768Z,962.63
2023-01-08T00:33:44.884Z,962.63
2023-01-08T00:34:44.703Z,962.56
2023-01-08T00:35:44.724Z,962.58
2023-01-08T00:36:44.747Z,962.53
2023-01-08T00:37:44.721Z,962.47
2023-01-08T00:38:44.706Z,962.45
2023-01-08T00:39:44.703Z,962.44
2023-01-08T00:40:44.745Z,962.40
2023-01-08T00:41:44.632Z,962.37
2023-01-08T00:42:44.691Z,962.38
2023-01-08T00:43:44.652Z,962.41
2023-01-08T00:44:44.608Z,962.38
2023-01-08T00:45:44.720Z,962.35
2023-01-08T00:46:44.593Z,962.34
2023-01-08T00:47:44.732Z,962.38
2023-01-08T00:48:45.122Z,962.40
2023-01-08T00:49:44.611Z,962.35
2023-01-08T00:50:44.532Z,962.34
2023-01-08T00:51:44.532Z,962.30
2023-01-08T00:52:44.549Z,962.30
2023-01-08T00:53:44.506Z,962.32
2023-01-08T00:54:44.511Z,962.31
2023-01-08T00:55:44.481Z,962.30
2023-01-08T00:56:44.504Z,962.29
2023-01-08T00:57:44.484Z,962.30
2023-01-08T00:58:44.440Z,962.26
2023-01-08T00:59:44.446Z,962.33
2023-01-08T01:00:44.458Z,962.40
2023-01-08T01:01:44.527Z,962.38
2023-01-08T01:02:44.409Z,962.31
2023-01-08T01:03:44.455Z,962.34
2023-01-08T01:04:44.390Z,962.38
2023-01-08T01:05:44.443Z,962.31
2023-01-08T01:06:44.375Z,962.36
2023-01-08T01:07:44.372Z,962.38
2023-01-08T01:08:44.448Z,962.36
2023-01-08T01:09:44.330Z,962.33
2023-01-08T01:10:44.441Z,962.27
2023-01-08T01:11:44.360Z,962.28
2023-01-08T01:12:44.299Z,962.24
2023-01-08T01:13:44.287Z,962.24
2023-01-08T01:14:44.279Z,962.21
2023-01-08T01:15:44.337Z,962.14
2023-01-08T01:16:44.309Z,962.10
2023-01-08T01:17:44.244Z,962.10
2023-01-08T01:18:44.233Z,962.10
2023-01-08T01:19:44.222Z,962.10
2023-01-08T01:20:44.261Z,962.03
2023-01-08T01:21:44.232Z,962.04
2023-01-08T01:22:44.223Z,962.05
2023-01-08T01:23:44.202Z,962.03
2023-01-08T01:24:44.171Z,962.01
2023-01-08T01:25:45.813Z,962.03
2023-01-08T01:26:44.169Z,962.01
2023-01-08T01:27:44.158Z,961.98
2023-01-08T01:28:44.165Z,961.97
2023-01-08T01:29:44.137Z,961.99
2023-01-08T01:30:44.172Z,961.99
2023-01-08T01:31:44.099Z,961.92
2023-01-08T01:32:44.208Z,961.95
2023-01-08T01:33:44.096Z,962.03
2023-01-08T01:34:44.085Z,961.90
2023-01-08T01:35:44.103Z,961.93
2023-01-08T01:36:44.069Z,961.94
2023-01-08T01:37:44.055Z,961.92
2023-01-08T01:38:44.008Z,962.01
2023-01-08T01:39:44.062Z,962.02
2023-01-08T01:40:43.990Z,962.01
2023-01-08T01:41:43.977Z,962.00
2023-01-08T01:42:44.046Z,961.91
2023-01-08T01:43:43.953Z,961.92
2023-01-08T01:44:43.977Z,961.93
2023-01-08T01:45:44.020Z,961.89
2023-01-08T01:46:44.003Z,961.91
2023-01-08T01:47:43.911Z,961.90
2023-01-08T01:48:44.178Z,961.86
2023-01-08T01:49:43.988Z,961.89
2023-01-08T01:50:43.904Z,961.90
2023-01-08T01:51:43.888Z,961.87
2023-01-08T01:52:44.060Z,961.88
2023-01-08T01:53:43.856Z,961.86
2023-01-08T01:54:43.902Z,961.86
2023-01-08T01:55:43.998Z,961.79
2023-01-08T01:56:43.825Z,961.79
2023-01-08T01:57:44.544Z,961.74
2023-01-08T01:58:43.820Z,961.80
2023-01-08T01:59:43.925Z,961.79
2023-01-08T02:00:43.801Z,961.71
2023-01-08T02:01:43.903Z,961.71
2023-01-08T02:02:43.816Z,961.71
2023-01-08T02:03:43.786Z,961.72
2023-01-08T02:04:43.771Z,961.66
2023-01-08T02:05:43.736Z,961.63
2023-01-08T02:06:43.742Z,961.66
2023-01-08T02:07:43.759Z,961.75
2023-01-08T02:08:43.697Z,961.73
2023-01-08T02:09:43.680Z,961.79
2023-01-08T02:10:43.732Z,961.72
2023-01-08T02:11:43.676Z,961.75
2023-01-08T02:12:43.645Z,961.75
2023-01-08T02:13:43.645Z,961.76
2023-01-08T02:14:43.625Z,961.72
2023-01-08T02:15:43.602Z,961.68
2023-01-08T02:16:43.681Z,961.65
2023-01-08T02:17:43.593Z,961.69
2023-01-08T02:18:43.610Z,961.69
2023-01-08T02:19:43.618Z,961.66
2023-01-08T02:20:43.601Z,961.65
2023-01-08T02:21:43.612Z,961.66
2023-01-08T02:22:43.568Z,961.66
2023-01-08T02:23:43.616Z,961.65
2023-01-08T02:24:43.572Z,961.57
2023-01-08T02:25:43.568Z,961.57
2023-01-08T02:26:43.505Z,961.59
2023-01-08T02:27:43.494Z,961.53
2023-01-08T02:28:43.513Z,961.58
2023-01-08T02:29:43.492Z,961.53
2023-01-08T02:30:43.581Z,961.53
2023-01-08T02:31:43.476Z,961.58
2023-01-08T02:32:43.445Z,961.57
2023-01-08T02:33:43.434Z,961.48
2023-01-08T02:34:43.444Z,961.51
2023-01-08T02:35:43.444Z,961.49
2023-01-08T02:36:43.409Z,961.48
2023-01-08T02:37:43.383Z,961.46
2023-01-08T02:38:43.394Z,961.41
2023-01-08T02:39:43.356Z,961.34
2023-01-08T02:40:43.357Z,961.30
2023-01-08T02:41:43.369Z,961.22
2023-01-08T02:42:43.331Z,961.41
2023-01-08T02:43:43.325Z,961.40
2023-01-08T02:44:43.294Z,961.38
2023-01-08T02:45:43.344Z,961.41
2023-01-08T02:46:43.305Z,961.31
2023-01-08T02:47:43.272Z,961.27
2023-01-08T02:48:43.323Z,961.28
2023-01-08T02:49:43.240Z,961.21
2023-01-08T02:50:43.231Z,961.25
2023-01-08T02:51:43.243Z,961.29
2023-01-08T02:52:43.219Z,961.23
2023-01-08T02:53:43.204Z,961.30
2023-01-08T02:54:43.194Z,961.27
2023-01-08T02:55:43.176Z,961.24
2023-01-08T02:56:43.194Z,961.28
2023-01-08T02:57:43.162Z,961.25
2023-01-08T02:58:43.155Z,961.22
2023-01-08T02:59:43.152Z,961.20
2023-01-08T03:00:43.118Z,961.30
2023-01-08T03:01:43.238Z,961.24
2023-01-08T03:02:43.135Z,961.29
2023-01-08T03:03:43.095Z,961.32
2023-01-08T03:04:43.078Z,961.32
2023-01-08T03:05:43.090Z,961.24
2023-01-08T03:06:43.070Z,961.23
2023-01-08T03:07:43.061Z,961.19
2023-01-08T03:08:43.063Z,961.27
2023-01-08T03:09:43.053Z,961.24
2023-01-08T03:10:43.061Z,961.23
2023-01-08T03:11:43.064Z,961.28
2023-01-08T03:12:43.019Z,961.18
2023-01-08T03:13:43.006Z,961.25
2023-01-08T03:14:42.991Z,961.32
2023-01-08T03:15:43.047Z,961.27
2023-01-08T03:16:43.137Z,961.26
2023-01-08T03:17:42.956Z,961.17
2023-01-08T03:18:42.957Z,961.14
2023-01-08T03:19:42.929Z,961.17
2023-01-08T03:20:42.902Z,961.15
2023-01-08T03:21:42.922Z,961.12
2023-01-08T03:22:42.936Z,961.09
2023-01-08T03:23:42.890Z,961.09
2023-01-08T03:24:42.872Z,961.03
2023-01-08T03:25:42.889Z,961.04
2023-01-08T03:26:42.853Z,961.10
2023-01-08T03:27:42.853Z,961.12
2023-01-08T03:28:42.821Z,961.18
2023-01-08T03:29:42.922Z,961.15
2023-01-08T03:30:42.880Z,961.20
2023-01-08T03:31:42.823Z,961.16
2023-01-08T03:32:42.809Z,961.17
2023-01-08T03:33:42.773Z,961.16
2023-01-08T03:34:42.753Z,961.17
2023-01-08T03:35:42.740Z,961.09
2023-01-08T03:36:42.752Z,961.06
2023-01-08T03:37:42.740Z,961.04
2023-01-08T03:38:42.723Z,961.05
2023-01-08T03:39:42.708Z,961.09
2023-01-08T03:40:42.712Z,961.08
2023-01-08T03:41:42.736Z,961.06
2023-01-08T03:42:42.678Z,961.10
2023-01-08T03:43:42.704Z,961.05
2023-01-08T03:44:42.663Z,961.08
2023-01-08T03:45:42.637Z,961.01
2023-01-08T03:46:42.634Z,961.02
2023-01-08T03:47:42.620Z,961.00
2023-01-08T03:48:42.632Z,961.00
2023-01-08T03:49:42.616Z,961.00
2023-01-08T03:50:42.594Z,961.06
2023-01-08T03:51:42.576Z,960.98
2023-01-08T03:52:42.578Z,961.00
2023-01-08T03:53:42.557Z,961.02
2023-01-08T03:54:42.571Z,960.99
2023-01-08T03:55:42.537Z,961.07
2023-01-08T03:56:42.510Z,961.02
2023-01-08T03:57:42.550Z,961.06
2023-01-08T03:58:42.480Z,961.06
2023-01-08T03:59:42.493Z,961.16
2023-01-08T04:00:42.496Z,961.03
2023-01-08T04:01:42.659Z,961.06
2023-01-08T04:02:42.577Z,960.99
2023-01-08T04:03:42.465Z,961.00
2023-01-08T04:04:42.461Z,961.01
2023-01-08T04:05:42.447Z,960.96
2023-01-08T04:06:42.449Z,961.06
2023-01-08T04:07:42.412Z,961.04
2023-01-08T04:08:42.380Z,961.00
2023-01-08T04:09:42.395Z,960.97
2023-01-08T04:10:42.373Z,961.03
2023-01-08T04:11:42.345Z,960.97
2023-01-08T04:12:42.364Z,960.96
2023-01-08T04:13:42.359Z,960.99
2023-01-08T04:14:42.386Z,960.92
2023-01-08T04:15:42.320Z,960.97
2023-01-08T04:16:42.318Z,960.98
2023-01-08T04:17:42.322Z,960.98
2023-01-08T04:18:42.322Z,960.97
2023-01-08T04:19:42.303Z,960.95
2023-01-08T04:20:42.249Z,960.94
2023-01-08T04:21:42.262Z,960.94
2023-01-08T04:22:42.227Z,960.94
2023-01-08T04:23:42.244Z,960.89
2023-01-08T04:24:42.221Z,960.89
2023-01-08T04:25:42.203Z,960.87
2023-01-08T04:26:42.181Z,960.86
2023-01-08T04:27:42.240Z,960.82
2023-01-08T04:28:42.189Z,960.77
2023-01-08T04:29:42.210Z,960.76
2023-01-08T04:30:42.216Z,960.78
2023-01-08T04:31:42.152Z,960.76
2023-01-08T04:32:42.134Z,960.79
2023-01-08T04:33:42.132Z,960.80
2023-01-08T04:34:42.095Z,960.77
2023-01-08T04:35:42.095Z,960.80
2023-01-08T04:36:42.091Z,960.74
2023-01-08T04:37:42.085Z,960.77
2023-01-08T04:38:42.085Z,960.77
2023-01-08T04:39:42.040Z,960.74
2023-01-08T04:40:42.027Z,960.69
2023-01-08T04:41:42.040Z,960.75
2023-01-08T04:42:42.038Z,960.70
2023-01-08T04:43:42.020Z,960.68
2023-01-08T04:44:41.996Z,960.67
2023-01-08T04:45:41.980Z,960.73
2023-01-08T04:46:41.995Z,960.70
2023-01-08T04:47:41.981Z,960.73
2023-01-08T04:48:41.955Z,960.74
2023-01-08T04:49:41.940Z,960.72
2023-01-08T04:50:41.937Z,960.72
2023-01-08T04:51:41.901Z,960.69
2023-01-08T04:52:41.942Z,960.64
2023-01-08T04:53:41.928Z,960.76
2023-01-08T04:54:41.868Z,960.68
2023-01-08T04:55:41.866Z,960.69
2023-01-08T04:56:41.868Z,960.65
2023-01-08T04:57:41.850Z,960.67
2023-01-08T04:58:41.863Z,960.63
2023-01-08T04:59:41.839Z,960.62
2023-01-08T05:00:41.818Z,960.62
2023-01-08T05:01:41.989Z,960.66
2023-01-08T05:02:42.052Z,960.59
2023-01-08T05:03:41.807Z,960.58
2023-01-08T05:04:41.796Z,960.55
2023-01-08T05:05:41.794Z,960.59
2023-01-08T05:06:41.793Z,960.58
2023-01-08T05:07:41.743Z,960.59
2023-01-08T05:08:41.751Z,960.55
2023-01-08T05:09:41.766Z,960.53
2023-01-08T05:10:41.709Z,960.49
2023-01-08T05:11:41.809Z,960.49
2023-01-08T05:12:41.776Z,960.47
2023-01-08T05:13:41.686Z,960.52
2023-01-08T05:14:41.691Z,960.49
2023-01-08T05:15:41.763Z,960.52
2023-01-08T05:16:41.650Z,960.49
2023-01-08T05:17:41.712Z,960.40
2023-01-08T05:18:41.603Z,960.42
2023-01-08T05:19:41.598Z,960.42
2023-01-08T05:20:41.601Z,960.46
2023-01-08T05:21:42.297Z,960.41
2023-01-08T05:22:41.571Z,960.40
2023-01-08T05:23:41.625Z,960.39
2023-01-08T05:24:41.578Z,960.40
2023-01-08T05:25:41.584Z,960.33
2023-01-08T05:26:41.548Z,960.40
2023-01-08T05:27:41.540Z,960.38
2023-01-08T05:28:41.508Z,960.26
2023-01-08T05:29:41.554Z,960.36
2023-01-08T05:30:41.546Z,960.35
2023-01-08T05:31:41.483Z,960.32
2023-01-08T05:32:41.502Z,960.33
2023-01-08T05:33:41.470Z,960.34
2023-01-08T05:34:41.475Z,960.30
2023-01-08T05:35:41.427Z,960.29
2023-01-08T05:36:41.432Z,960.28
2023-01-08T05:37:41.405Z,960.33
2023-01-08T05:38:41.443Z,960.29
2023-01-08T05:39:41.394Z,960.23
2023-01-08T05:40:41.375Z,960.26
2023-01-08T05:41:41.383Z,960.16
2023-01-08T05:42:41.364Z,960.22
2023-01-08T05:43:41.379Z,960.17
2023-01-08T05:44:41.349Z,960.17
2023-01-08T05:45:41.360Z,960.15
2023-01-08T05:46:41.442Z,960.15
2023-01-08T05:47:41.305Z,960.14
2023-01-08T05:48:41.324Z,960.10
2023-01-08T05:49:41.344Z,960.12
2023-01-08T05:50:41.314Z,960.12
2023-01-08T05:51:41.269Z,960.09
2023-01-08T05:52:41.261Z,960.00
2023-01-08T05:53:41.240Z,960.06
2023-01-08T05:54:41.236Z,960.04
2023-01-08T05:55:41.218Z,960.06
2023-01-08T05:56:41.241Z,960.04
2023-01-08T05:57:41.190Z,960.05
2023-01-08T05:58:41.176Z,960.03
2023-01-08T05:59:41.203Z,959.99
2023-01-08T06:00:41.205Z,960.01
2023-01-08T06:01:41.358Z,960.02
2023-01-08T06:02:41.222Z,959.98
2023-01-08T06:03:41.134Z,959.94
2023-01-08T06:04:41.219Z,959.95
2023-01-08T06:05:41.107Z,960.04
2023-01-08T06:06:41.146Z,959.94
2023-01-08T06:07:41.087Z,959.84
2023-01-08T06:08:41.071Z,959.88
2023-01-08T06:09:41.051Z,959.90
2023-01-08T06:10:41.053Z,959.90
2023-01-08T06:11:41.064Z,959.91
2023-01-08T06:12:41.069Z,959.97
2023-01-08T06:13:41.009Z,959.92
2023-01-08T06:14:41.012Z,959.89
2023-01-08T06:15:41.044Z,959.88
2023-01-08T06:16:41.009Z,959.87
2023-01-08T06:17:40.975Z,959.83
2023-01-08T06:18:40.971Z,959.83
2023-01-08T06:19:40.952Z,959.81
2023-01-08T06:20:41.015Z,959.80
2023-01-08T06:21:40.966Z,959.84
2023-01-08T06:22:40.924Z,959.82
2023-01-08T06:23:40.937Z,959.81
2023-01-08T06:24:40.887Z,959.84
2023-01-08T06:25:40.899Z,959.80
2023-01-08T06:26:40.899Z,959.88
2023-01-08T06:27:40.876Z,959.82
2023-01-08T06:28:40.855Z,959.81
2023-01-08T06:29:40.860Z,959.80
2023-01-08T06:30:40.819Z,959.79
2023-01-08T06:31:40.880Z,959.79
2023-01-08T06:32:40.819Z,959.78
2023-01-08T06:33:40.804Z,959.66
2023-01-08T06:34:40.861Z,959.60
2023-01-08T06:35:40.776Z,959.68
2023-01-08T06:36:40.791Z,959.62
2023-01-08T06:37:40.758Z,959.72
2023-01-08T06:38:40.737Z,959.72
2023-01-08T06:39:40.727Z,959.70
2023-01-08T06:40:40.906Z,959.64
2023-01-08T06:41:40.700Z,959.58
2023-01-08T06:42:40.690Z,959.56
2023-01-08T06:43:40.686Z,959.59
2023-01-08T06:44:40.705Z,959.61
2023-01-08T06:45:40.678Z,959.53
2023-01-08T06:46:40.869Z,959.52
2023-01-08T06:47:40.646Z,959.55
2023-01-08T06:48:40.625Z,959.56
2023-01-08T06:49:40.638Z,959.62
2023-01-08T06:50:40.708Z,959.58
2023-01-08T06:51:40.613Z,959.58
2023-01-08T06:52:40.583Z,959.60
2023-01-08T06:53:40.589Z,959.52
2023-01-08T06:54:40.573Z,959.49
2023-01-08T06:55:40.553Z,959.60
2023-01-08T06:56:53.035Z,959.55
2023-01-08T06:57:40.548Z,959.61
2023-01-08T06:58:40.551Z,959.58
2023-01-08T06:59:40.506Z,959.58
2023-01-08T07:00:40.500Z,959.59
2023-01-08T07:01:40.689Z,959.55
2023-01-08T07:02:40.757Z,959.57
2023-01-08T07:03:40.568Z,959.52
2023-01-08T07:04:40.475Z,959.57
2023-01-08T07:05:40.439Z,959.51
2023-01-08T07:06:40.443Z,959.51
2023-01-08T07:07:40.511Z,959.54
2023-01-08T07:08:40.413Z,959.50
2023-01-08T07:09:40.406Z,959.50
2023-01-08T07:10:40.405Z,959.51
2023-01-08T07:11:40.396Z,959.50
2023-01-08T07:12:40.409Z,959.45
2023-01-08T07:13:40.415Z,959.41
2023-01-08T07:14:40.350Z,959.43
2023-01-08T07:15:40.420Z,959.41
2023-01-08T07:16:40.330Z,959.34
2023-01-08T07:17:40.326Z,959.41
2023-01-08T07:18:40.326Z,959.36
2023-01-08T07:19:40.309Z,959.33
2023-01-08T07:20:40.284Z,959.25
2023-01-08T07:21:40.279Z,959.27
2023-01-08T07:22:40.262Z,959.32
2023-01-08T07:23:40.246Z,959.26
2023-01-08T07:24:40.247Z,959.19
2023-01-08T07:25:40.230Z,959.17
2023-01-08T07:26:40.222Z,959.20
2023-01-08T07:27:40.198Z,959.20
2023-01-08T07:28:40.192Z,959.21
2023-01-08T07:29:40.227Z,959.17
2023-01-08T07:30:40.186Z,959.17
2023-01-08T07:31:40.262Z,959.12
2023-01-08T07:32:40.155Z,959.09
2023-01-08T07:33:40.140Z,959.15
2023-01-08T07:34:40.139Z,959.10
2023-01-08T07:35:40.143Z,959.10
2023-01-08T07:36:40.094Z,959.11
2023-01-08T07:37:40.118Z,959.11
2023-01-08T07:38:40.088Z,959.06
2023-01-08T07:39:40.064Z,959.11
2023-01-08T07:40:40.062Z,959.16
2023-01-08T07:41:40.117Z,959.05
2023-01-08T07:42:40.083Z,959.08
2023-01-08T07:43:40.030Z,959.02
2023-01-08T07:44:40.012Z,958.96
2023-01-08T07:45:40.068Z,958.90
2023-01-08T07:46:40.083Z,958.93
2023-01-08T07:47:39.988Z,958.95
2023-01-08T07:48:39.968Z,958.85
2023-01-08T07:49:40.018Z,958.92
2023-01-08T07:50:41.394Z,958.93
2023-01-08T07:51:39.943Z,958.87
2023-01-08T07:52:39.938Z,958.86
2023-01-08T07:53:39.913Z,958.90
2023-01-08T07:54:39.908Z,958.85
2023-01-08T07:55:39.945Z,958.87
2023-01-08T07:56:39.869Z,958.84
2023-01-08T07:57:39.902Z,958.89
2023-01-08T07:58:39.876Z,958.87
2023-01-08T07:59:40.463Z,958.88
2023-01-08T08:00:39.864Z,958.86
2023-01-08T08:01:39.962Z,958.87
2023-01-08T08:02:40.170Z,958.84
2023-01-08T08:03:39.885Z,958.84
2023-01-08T08:04:39.781Z,958.76
2023-01-08T08:05:39.798Z,958.83
2023-01-08T08:06:39.791Z,958.82
2023-01-08T08:07:39.796Z,958.91
2023-01-08T08:08:41.998Z,958.78
2023-01-08T08:09:39.739Z,958.77
2023-01-08T08:10:39.755Z,958.72
2023-01-08T08:11:39.720Z,958.78
2023-01-08T08:12:39.799Z,958.75
2023-01-08T08:13:39.752Z,958.70
2023-01-08T08:14:39.697Z,958.73
2023-01-08T08:15:39.703Z,958.72
2023-01-08T08:16:39.659Z,958.73
2023-01-08T08:17:39.710Z,958.67
2023-01-08T08:18:39.649Z,958.70
2023-01-08T08:19:39.630Z,958.73
2023-01-08T08:20:39.650Z,958.78
2023-01-08T08:21:39.608Z,958.81
2023-01-08T08:22:39.631Z,958.71
2023-01-08T08:23:39.609Z,958.76
2023-01-08T08:24:39.579Z,958.78
2023-01-08T08:25:39.568Z,958.80
2023-01-08T08:26:39.650Z,958.78
2023-01-08T08:27:39.614Z,958.74
2023-01-08T08:28:39.571Z,958.79
2023-01-08T08:29:39.527Z,958.88
2023-01-08T08:30:42.332Z,958.87
2023-01-08T08:31:39.623Z,958.84
2023-01-08T08:32:39.485Z,958.79
2023-01-08T08:33:39.555Z,958.81
2023-01-08T08:34:39.477Z,958.86
2023-01-08T08:35:39.510Z,958.81
2023-01-08T08:36:39.512Z,958.83
2023-01-08T08:37:39.430Z,958.88
2023-01-08T08:38:39.448Z,958.83
2023-01-08T08:39:39.517Z,958.71
2023-01-08T08:40:39.394Z,958.80
2023-01-08T08:41:39.416Z,958.82
2023-01-08T08:42:39.407Z,958.78
2023-01-08T08:43:39.423Z,958.81
2023-01-08T08:44:41.324Z,958.80
2023-01-08T08:45:39.458Z,958.83
2023-01-08T08:46:39.392Z,958.75
2023-01-08T08:47:39.344Z,958.81
2023-01-08T08:48:39.395Z,958.78
2023-01-08T08:49:39.336Z,958.78
2023-01-08T08:50:39.367Z,958.78
2023-01-08T08:51:39.307Z,958.75
2023-01-08T08:52:39.336Z,958.84
2023-01-08T08:53:39.255Z,958.75
2023-01-08T08:54:39.312Z,958.82
2023-01-08T08:55:39.236Z,958.75
2023-01-08T08:56:39.225Z,958.76
2023-01-08T08:57:39.235Z,958.73
2023-01-08T08:58:39.228Z,958.71
2023-01-08T08:59:39.185Z,958.75
2023-01-08T09:00:39.220Z,958.67
2023-01-08T09:01:39.321Z,958.75
2023-01-08T09:02:39.307Z,958.66
2023-01-08T09:03:39.277Z,958.67
2023-01-08T09:04:39.156Z,958.70
2023-01-08T09:05:39.158Z,958.69
2023-01-08T09:06:39.145Z,958.66
2023-01-08T09:07:39.102Z,958.64
2023-01-08T09:08:39.124Z,958.68
2023-01-08T09:09:39.093Z,958.66
2023-01-08T09:10:39.066Z,958.64
2023-01-08T09:11:39.084Z,958.66
2023-01-08T09:12:39.053Z,958.72
2023-01-08T09:13:39.058Z,958.76
2023-01-08T09:14:39.024Z,958.70
2023-01-08T09:15:39.085Z,958.69
2023-01-08T09:16:39.092Z,958.67
2023-01-08T09:17:38.998Z,958.66
2023-01-08T09:18:38.997Z,958.69
2023-01-08T09:19:39.150Z,958.66
2023-01-08T09:20:38.975Z,958.66
2023-01-08T09:21:38.965Z,958.62
2023-01-08T09:22:39.042Z,958.68
2023-01-08T09:23:38.914Z,958.61
2023-01-08T09:24:39.064Z,958.64
2023-01-08T09:25:38.924Z,958.59
2023-01-08T09:26:38.907Z,958.64
2023-01-08T09:27:38.952Z,958.62
2023-01-08T09:28:38.930Z,958.66
2023-01-08T09:29:38.870Z,958.72
2023-01-08T09:30:38.905Z,958.72
2023-01-08T09:31:38.962Z,958.77
2023-01-08T09:32:38.835Z,958.72
2023-01-08T09:33:38.844Z,958.80
2023-01-08T09:34:38.906Z,958.80
2023-01-08T09:35:38.805Z,958.73
2023-01-08T09:36:38.785Z,958.75
2023-01-08T09:37:38.848Z,958.72
2023-01-08T09:38:38.768Z,958.67
2023-01-08T09:39:38.773Z,958.80
2023-01-08T09:40:38.766Z,958.76
2023-01-08T09:41:38.819Z,958.76
2023-01-08T09:42:38.730Z,958.76
2023-01-08T09:43:38.764Z,958.81
2023-01-08T09:44:38.703Z,958.79
2023-01-08T09:45:38.725Z,958.78
2023-01-08T09:46:38.715Z,958.86
2023-01-08T09:47:38.676Z,958.86
2023-01-08T09:48:38.691Z,958.83
2023-01-08T09:49:38.682Z,958.81
2023-01-08T09:50:38.651Z,958.80
2023-01-08T09:51:38.704Z,958.71
2023-01-08T09:52:38.768Z,958.74
2023-01-08T09:53:38.594Z,958.71
2023-01-08T09:54:38.590Z,958.78
2023-01-08T09:55:38.609Z,958.72
2023-01-08T09:56:38.573Z,958.72
2023-01-08T09:57:38.569Z,958.78
2023-01-08T09:58:38.623Z,958.70
2023-01-08T09:59:38.547Z,958.67
2023-01-08T10:00:38.566Z,958.67
2023-01-08T10:01:38.669Z,958.67
2023-01-08T10:02:38.840Z,958.61
2023-01-08T10:03:38.589Z,958.63
2023-01-08T10:04:38.508Z,958.65
2023-01-08T10:05:38.460Z,958.64
2023-01-08T10:06:38.472Z,958.67
2023-01-08T10:07:38.479Z,958.69
2023-01-08T10:08:38.454Z,958.65
2023-01-08T10:09:39.346Z,958.69
2023-01-08T10:10:38.437Z,958.67
2023-01-08T10:11:38.413Z,958.64
2023-01-08T10:12:38.451Z,958.60
2023-01-08T10:13:38.407Z,958.57
2023-01-08T10:14:38.458Z,958.62
2023-01-08T10:15:38.393Z,958.59
2023-01-08T10:16:38.357Z,958.59
2023-01-08T10:17:38.341Z,958.56
2023-01-08T10:18:38.487Z,958.55
2023-01-08T10:19:38.342Z,958.66
2023-01-08T10:20:38.313Z,958.61
2023-01-08T10:21:38.301Z,958.63
2023-01-08T10:22:38.324Z,958.63
2023-01-08T10:23:38.308Z,958.62
2023-01-08T10:24:38.265Z,958.54
2023-01-08T10:25:44.386Z,958.62
2023-01-08T10:26:38.264Z,958.57
2023-01-08T10:27:40.374Z,958.54
2023-01-08T10:28:38.231Z,958.66
2023-01-08T10:29:38.208Z,958.62
2023-01-08T10:30:38.199Z,958.58
2023-01-08T10:31:38.207Z,958.65
2023-01-08T10:32:38.250Z,958.63
2023-01-08T10:33:38.204Z,958.62
2023-01-08T10:34:38.168Z,958.56
2023-01-08T10:35:38.360Z,958.55
2023-01-08T10:36:38.166Z,958.54
2023-01-08T10:37:38.136Z,958.52
2023-01-08T10:38:38.172Z,958.53
2023-01-08T10:39:38.111Z,958.48
2023-01-08T10:40:38.097Z,958.49
2023-01-08T10:41:38.122Z,958.55
2023-01-08T10:42:38.068Z,958.53
2023-01-08T10:43:38.127Z,958.52
2023-01-08T10:44:39.011Z,958.46
2023-01-08T10:45:38.061Z,958.35
2023-01-08T10:46:38.032Z,958.37
2023-01-08T10:47:38.039Z,958.36
2023-01-08T10:48:38.043Z,958.34
2023-01-08T10:49:38.039Z,958.34
2023-01-08T10:50:38.027Z,958.36
2023-01-08T10:51:37.977Z,958.45
2023-01-08T10:52:38.027Z,958.47
2023-01-08T10:53:38.012Z,958.42
2023-01-08T10:54:38.347Z,958.40
2023-01-08T10:55:37.932Z,958.38
2023-01-08T10:56:37.945Z,958.38
2023-01-08T10:57:37.931Z,958.36
2023-01-08T10:58:37.902Z,958.35
2023-01-08T10:59:37.947Z,958.31
2023-01-08T11:00:38.650Z,958.36
2023-01-08T11:01:38.022Z,958.30
2023-01-08T11:02:39.464Z,958.39
2023-01-08T11:03:37.838Z,958.32
2023-01-08T11:04:37.833Z,958.35
2023-01-08T11:05:37.885Z,958.36
2023-01-08T11:06:37.833Z,958.31
2023-01-08T11:07:37.809Z,958.32
2023-01-08T11:08:37.810Z,958.24
2023-01-08T11:09:37.815Z,958.26
2023-01-08T11:10:37.790Z,958.27
2023-01-08T11:11:37.771Z,958.26
2023-01-08T11:12:37.752Z,958.26
2023-01-08T11:13:37.791Z,958.23
2023-01-08T11:14:37.726Z,958.24
2023-01-08T11:15:37.751Z,958.28
2023-01-08T11:16:37.716Z,958.24
2023-01-08T11:17:37.709Z,958.29
2023-01-08T11:18:37.700Z,958.24
2023-01-08T11:19:37.664Z,958.17
2023-01-08T11:20:37.700Z,958.21
2023-01-08T11:21:37.653Z,958.15
2023-01-08T11:22:37.646Z,958.07
2023-01-08T11:23:37.632Z,958.06
2023-01-08T11:24:37.773Z,958.07
2023-01-08T11:25:37.602Z,958.01
2023-01-08T11:26:37.615Z,958.04
2023-01-08T11:27:37.614Z,958.07
2023-01-08T11:28:37.737Z,958.00
2023-01-08T11:29:37.600Z,958.15
2023-01-08T11:30:37.567Z,957.96
2023-01-08T11:31:37.577Z,957.94
2023-01-08T11:32:37.562Z,957.96
2023-01-08T11:33:37.517Z,957.91
2023-01-08T11:34:37.516Z,957.95
2023-01-08T11:35:37.523Z,957.88
2023-01-08T11:36:37.499Z,957.81
2023-01-08T11:37:37.509Z,957.94
2023-01-08T11:38:37.451Z,957.86
2023-01-08T11:39:37.479Z,957.84
2023-01-08T11:40:37.447Z,957.82
2023-01-08T11:41:37.485Z,957.85
2023-01-08T11:42:37.420Z,957.76
2023-01-08T11:43:37.446Z,957.77
2023-01-08T11:44:37.399Z,957.72
2023-01-08T11:45:37.458Z,957.81
2023-01-08T11:46:37.375Z,957.83
2023-01-08T11:47:37.369Z,957.72
2023-01-08T11:48:37.379Z,957.73
2023-01-08T11:49:37.345Z,957.70
2023-01-08T11:50:37.396Z,957.68
2023-01-08T11:51:37.400Z,957.61
2023-01-08T11:52:37.337Z,957.59
2023-01-08T11:53:37.288Z,957.60
2023-01-08T11:54:37.313Z,957.65
2023-01-08T11:55:37.308Z,957.66
2023-01-08T11:56:37.266Z,957.59
2023-01-08T11:57:37.239Z,957.59
2023-01-08T11:58:37.375Z,957.50
2023-01-08T11:59:37.244Z,957.61
2023-01-08T12:00:37.238Z,957.54
2023-01-08T12:01:37.335Z,957.59
2023-01-08T12:02:37.203Z,957.64
2023-01-08T12:03:37.303Z,957.59
2023-01-08T12:04:37.212Z,957.63
2023-01-08T12:05:37.169Z,957.57
2023-01-08T12:06:37.208Z,957.58
2023-01-08T12:07:37.143Z,957.64
2023-01-08T12:08:37.132Z,957.53
2023-01-08T12:09:37.130Z,957.57
2023-01-08T12:10:37.111Z,957.59
2023-01-08T12:11:37.092Z,957.56
2023-01-08T12:12:37.096Z,957.56
2023-01-08T12:13:37.077Z,957.56
2023-01-08T12:14:37.620Z,957.47
2023-01-08T12:15:37.074Z,957.49
2023-01-08T12:16:37.080Z,957.55
2023-01-08T12:17:37.053Z,957.52
2023-01-08T12:18:37.954Z,957.53
2023-01-08T12:19:37.023Z,957.53
2023-01-08T12:20:37.032Z,957.55
2023-01-08T12:21:36.985Z,957.53
2023-01-08T12:22:36.981Z,957.56
2023-01-08T12:23:36.952Z,957.55
2023-01-08T12:24:36.975Z,957.49
2023-01-08T12:25:37.107Z,957.50
2023-01-08T12:26:36.929Z,957.46
2023-01-08T12:27:55.969Z,957.47
2023-01-08T12:28:36.924Z,957.51